sensor_id;sensor_type;location;lat;lon;timestamp;P1;durP1;ratioP1;P2;durP2;ratioP2
10114;SDS011;5097;43.260;27.812;2023-08-31T00:02:30;9.88;;;8.93;;
10114;SDS011;5097;43.260;27.812;2023-08-31T00:05:16;10.25;;;8.45;;
10114;SDS011;5097;43.260;27.812;2023-08-31T00:08:00;9.75;;;8.80;;
10114;SDS011;5097;43.260;27.812;2023-08-31T00:10:44;11.13;;;9.15;;
10114;SDS011;5097;43.260;27.812;2023-08-31T00:13:28;11.73;;;10.60;;
10114;SDS011;5097;43.260;27.812;2023-08-31T00:16:12;11.40;;;10.27;;
10114;SDS011;5097;43.260;27.812;2023-08-31T00:18:57;11.38;;;10.38;;
10114;SDS011;5097;43.260;27.812;2023-08-31T00:21:41;10.52;;;9.30;;
10114;SDS011;5097;43.260;27.812;2023-08-31T00:24:26;11.85;;;10.75;;
10114;SDS011;5097;43.260;27.812;2023-08-31T00:27:15;12.80;;;11.52;;
10114;SDS011;5097;43.260;27.812;2023-08-31T00:30:00;15.20;;;11.23;;
10114;SDS011;5097;43.260;27.812;2023-08-31T00:32:45;11.15;;;10.00;;
10114;SDS011;5097;43.260;27.812;2023-08-31T00:35:32;11.85;;;9.60;;
10114;SDS011;5097;43.260;27.812;2023-08-31T00:38:17;12.05;;;10.93;;
10114;SDS011;5097;43.260;27.812;2023-08-31T00:41:01;10.90;;;9.90;;
10114;SDS011;5097;43.260;27.812;2023-08-31T00:43:46;10.38;;;9.23;;
10114;SDS011;5097;43.260;27.812;2023-08-31T00:46:30;9.93;;;8.93;;
10114;SDS011;5097;43.260;27.812;2023-08-31T00:49:15;13.10;;;11.20;;
10114;SDS011;5097;43.260;27.812;2023-08-31T00:52:01;10.40;;;9.30;;
10114;SDS011;5097;43.260;27.812;2023-08-31T00:54:46;9.35;;;8.50;;
10114;SDS011;5097;43.260;27.812;2023-08-31T00:57:34;9.32;;;8.43;;
10114;SDS011;5097;43.260;27.812;2023-08-31T01:00:18;9.73;;;8.73;;
10114;SDS011;5097;43.260;27.812;2023-08-31T01:03:05;9.82;;;8.82;;
10114;SDS011;5097;43.260;27.812;2023-08-31T01:09:34;10.07;;;9.13;;
10114;SDS011;5097;43.260;27.812;2023-08-31T01:12:25;10.38;;;9.25;;
10114;SDS011;5097;43.260;27.812;2023-08-31T01:15:16;11.63;;;9.68;;
10114;SDS011;5097;43.260;27.812;2023-08-31T01:18:02;19.52;;;14.05;;
10114;SDS011;5097;43.260;27.812;2023-08-31T01:20:50;16.77;;;11.82;;
10114;SDS011;5097;43.260;27.812;2023-08-31T01:23:49;13.00;;;11.05;;
10114;SDS011;5097;43.260;27.812;2023-08-31T01:26:35;11.10;;;8.93;;
10114;SDS011;5097;43.260;27.812;2023-08-31T01:29:19;10.13;;;9.13;;
10114;SDS011;5097;43.260;27.812;2023-08-31T01:32:07;10.73;;;9.63;;
10114;SDS011;5097;43.260;27.812;2023-08-31T01:34:53;9.15;;;8.35;;
10114;SDS011;5097;43.260;27.812;2023-08-31T01:37:40;12.63;;;10.57;;
10114;SDS011;5097;43.260;27.812;2023-08-31T01:40:31;9.75;;;8.85;;
10114;SDS011;5097;43.260;27.812;2023-08-31T01:43:22;8.30;;;7.50;;
10114;SDS011;5097;43.260;27.812;2023-08-31T01:46:06;8.93;;;8.13;;
10114;SDS011;5097;43.260;27.812;2023-08-31T01:48:51;8.10;;;7.40;;
10114;SDS011;5097;43.260;27.812;2023-08-31T01:51:35;8.85;;;8.05;;
10114;SDS011;5097;43.260;27.812;2023-08-31T01:54:21;8.57;;;7.82;;
10114;SDS011;5097;43.260;27.812;2023-08-31T01:57:07;7.80;;;7.10;;
10114;SDS011;5097;43.260;27.812;2023-08-31T02:00:11;7.80;;;7.10;;
10114;SDS011;5097;43.260;27.812;2023-08-31T02:02:55;8.13;;;7.43;;
10114;SDS011;5097;43.260;27.812;2023-08-31T02:05:40;8.43;;;7.72;;
10114;SDS011;5097;43.260;27.812;2023-08-31T02:08:25;10.48;;;9.48;;
10114;SDS011;5097;43.260;27.812;2023-08-31T02:11:09;12.68;;;11.30;;
10114;SDS011;5097;43.260;27.812;2023-08-31T02:13:56;14.20;;;10.48;;
10114;SDS011;5097;43.260;27.812;2023-08-31T02:16:40;13.68;;;11.68;;
10114;SDS011;5097;43.260;27.812;2023-08-31T02:19:24;15.60;;;11.65;;
10114;SDS011;5097;43.260;27.812;2023-08-31T02:22:09;9.85;;;8.90;;
10114;SDS011;5097;43.260;27.812;2023-08-31T02:24:53;10.10;;;9.20;;
10114;SDS011;5097;43.260;27.812;2023-08-31T02:27:37;10.63;;;9.52;;
10114;SDS011;5097;43.260;27.812;2023-08-31T02:30:22;11.57;;;10.38;;
10114;SDS011;5097;43.260;27.812;2023-08-31T02:33:06;11.30;;;9.77;;
10114;SDS011;5097;43.260;27.812;2023-08-31T02:35:51;9.90;;;9.00;;
10114;SDS011;5097;43.260;27.812;2023-08-31T02:38:35;14.25;;;12.75;;
10114;SDS011;5097;43.260;27.812;2023-08-31T02:41:19;14.68;;;11.35;;
10114;SDS011;5097;43.260;27.812;2023-08-31T02:44:03;15.75;;;12.90;;
10114;SDS011;5097;43.260;27.812;2023-08-31T02:46:49;13.50;;;12.10;;
10114;SDS011;5097;43.260;27.812;2023-08-31T02:49:33;16.35;;;12.25;;
10114;SDS011;5097;43.260;27.812;2023-08-31T02:52:17;13.77;;;11.70;;
10114;SDS011;5097;43.260;27.812;2023-08-31T02:55:02;13.60;;;12.20;;
10114;SDS011;5097;43.260;27.812;2023-08-31T02:57:46;10.85;;;9.35;;
10114;SDS011;5097;43.260;27.812;2023-08-31T03:00:31;9.23;;;8.32;;
10114;SDS011;5097;43.260;27.812;2023-08-31T03:03:17;9.98;;;8.98;;
10114;SDS011;5097;43.260;27.812;2023-08-31T03:06:02;11.52;;;9.77;;
10114;SDS011;5097;43.260;27.812;2023-08-31T03:08:46;11.40;;;10.13;;
10114;SDS011;5097;43.260;27.812;2023-08-31T03:11:30;14.60;;;11.43;;
10114;SDS011;5097;43.260;27.812;2023-08-31T03:14:14;14.27;;;11.60;;
10114;SDS011;5097;43.260;27.812;2023-08-31T03:16:58;14.07;;;11.30;;
10114;SDS011;5097;43.260;27.812;2023-08-31T03:19:45;13.63;;;11.25;;
10114;SDS011;5097;43.260;27.812;2023-08-31T03:22:29;12.98;;;11.48;;
10114;SDS011;5097;43.260;27.812;2023-08-31T03:25:13;12.40;;;11.00;;
10114;SDS011;5097;43.260;27.812;2023-08-31T03:27:57;16.27;;;12.55;;
10114;SDS011;5097;43.260;27.812;2023-08-31T03:30:41;16.40;;;12.10;;
10114;SDS011;5097;43.260;27.812;2023-08-31T03:33:27;15.35;;;12.05;;
10114;SDS011;5097;43.260;27.812;2023-08-31T03:36:13;13.20;;;11.90;;
10114;SDS011;5097;43.260;27.812;2023-08-31T03:38:58;13.60;;;10.38;;
10114;SDS011;5097;43.260;27.812;2023-08-31T03:41:42;12.50;;;10.02;;
10114;SDS011;5097;43.260;27.812;2023-08-31T03:44:26;11.75;;;10.45;;
10114;SDS011;5097;43.260;27.812;2023-08-31T03:47:11;10.82;;;9.15;;
10114;SDS011;5097;43.260;27.812;2023-08-31T03:49:56;14.23;;;9.95;;
10114;SDS011;5097;43.260;27.812;2023-08-31T03:52:41;14.18;;;10.93;;
10114;SDS011;5097;43.260;27.812;2023-08-31T03:55:25;13.90;;;10.68;;
10114;SDS011;5097;43.260;27.812;2023-08-31T03:58:11;11.10;;;9.90;;
10114;SDS011;5097;43.260;27.812;2023-08-31T04:00:57;14.23;;;10.25;;
10114;SDS011;5097;43.260;27.812;2023-08-31T04:03:42;13.27;;;9.15;;
10114;SDS011;5097;43.260;27.812;2023-08-31T04:06:26;11.82;;;9.82;;
10114;SDS011;5097;43.260;27.812;2023-08-31T04:09:12;11.88;;;10.15;;
10114;SDS011;5097;43.260;27.812;2023-08-31T04:11:56;11.77;;;9.57;;
10114;SDS011;5097;43.260;27.812;2023-08-31T04:14:39;12.75;;;10.57;;
10114;SDS011;5097;43.260;27.812;2023-08-31T04:17:23;13.43;;;10.50;;
10114;SDS011;5097;43.260;27.812;2023-08-31T04:20:08;15.75;;;10.40;;
10114;SDS011;5097;43.260;27.812;2023-08-31T04:22:52;9.73;;;8.82;;
10114;SDS011;5097;43.260;27.812;2023-08-31T04:25:38;11.50;;;8.30;;
10114;SDS011;5097;43.260;27.812;2023-08-31T04:28:21;10.43;;;8.05;;
10114;SDS011;5097;43.260;27.812;2023-08-31T04:31:06;10.80;;;8.00;;
10114;SDS011;5097;43.260;27.812;2023-08-31T04:33:50;12.25;;;9.95;;
10114;SDS011;5097;43.260;27.812;2023-08-31T04:36:35;11.30;;;10.18;;
10114;SDS011;5097;43.260;27.812;2023-08-31T04:39:19;10.60;;;9.52;;
10114;SDS011;5097;43.260;27.812;2023-08-31T04:42:04;11.10;;;8.82;;
10114;SDS011;5097;43.260;27.812;2023-08-31T04:44:48;12.50;;;8.70;;
10114;SDS011;5097;43.260;27.812;2023-08-31T04:47:33;8.95;;;7.97;;
10114;SDS011;5097;43.260;27.812;2023-08-31T04:50:16;7.07;;;6.47;;
10114;SDS011;5097;43.260;27.812;2023-08-31T04:53:00;6.57;;;5.90;;
10114;SDS011;5097;43.260;27.812;2023-08-31T04:55:44;8.20;;;5.57;;
10114;SDS011;5097;43.260;27.812;2023-08-31T04:58:29;5.93;;;5.35;;
10114;SDS011;5097;43.260;27.812;2023-08-31T05:01:13;5.85;;;5.25;;
10114;SDS011;5097;43.260;27.812;2023-08-31T05:03:58;5.65;;;5.10;;
10114;SDS011;5097;43.260;27.812;2023-08-31T05:06:42;5.70;;;4.97;;
10114;SDS011;5097;43.260;27.812;2023-08-31T05:09:26;6.18;;;5.00;;
10114;SDS011;5097;43.260;27.812;2023-08-31T05:12:14;6.25;;;5.10;;
10114;SDS011;5097;43.260;27.812;2023-08-31T05:15:01;6.07;;;5.47;;
10114;SDS011;5097;43.260;27.812;2023-08-31T05:17:46;5.88;;;5.28;;
10114;SDS011;5097;43.260;27.812;2023-08-31T05:20:30;6.60;;;6.00;;
10114;SDS011;5097;43.260;27.812;2023-08-31T05:23:14;6.00;;;5.32;;
10114;SDS011;5097;43.260;27.812;2023-08-31T05:25:58;7.07;;;6.38;;
10114;SDS011;5097;43.260;27.812;2023-08-31T05:28:43;8.43;;;7.57;;
10114;SDS011;5097;43.260;27.812;2023-08-31T05:31:28;7.82;;;7.03;;
10114;SDS011;5097;43.260;27.812;2023-08-31T05:34:15;8.55;;;7.40;;
10114;SDS011;5097;43.260;27.812;2023-08-31T05:36:59;8.88;;;7.90;;
10114;SDS011;5097;43.260;27.812;2023-08-31T05:39:47;8.77;;;7.90;;
10114;SDS011;5097;43.260;27.812;2023-08-31T05:42:31;7.32;;;6.72;;
10114;SDS011;5097;43.260;27.812;2023-08-31T05:45:15;8.02;;;7.22;;
10114;SDS011;5097;43.260;27.812;2023-08-31T05:48:00;7.90;;;6.75;;
10114;SDS011;5097;43.260;27.812;2023-08-31T05:50:44;7.78;;;6.60;;
10114;SDS011;5097;43.260;27.812;2023-08-31T05:53:28;6.70;;;6.10;;
10114;SDS011;5097;43.260;27.812;2023-08-31T05:56:12;7.35;;;6.65;;
10114;SDS011;5097;43.260;27.812;2023-08-31T05:58:56;8.30;;;6.40;;
10114;SDS011;5097;43.260;27.812;2023-08-31T06:01:40;6.75;;;6.07;;
10114;SDS011;5097;43.260;27.812;2023-08-31T06:04:25;10.30;;;8.23;;
10114;SDS011;5097;43.260;27.812;2023-08-31T06:07:09;14.57;;;8.88;;
10114;SDS011;5097;43.260;27.812;2023-08-31T06:09:53;11.65;;;9.38;;
10114;SDS011;5097;43.260;27.812;2023-08-31T06:12:36;9.25;;;8.35;;
10114;SDS011;5097;43.260;27.812;2023-08-31T06:15:20;10.13;;;8.15;;
10114;SDS011;5097;43.260;27.812;2023-08-31T06:18:04;8.65;;;7.85;;
10114;SDS011;5097;43.260;27.812;2023-08-31T06:20:50;10.15;;;8.25;;
10114;SDS011;5097;43.260;27.812;2023-08-31T06:23:34;8.50;;;7.70;;
10114;SDS011;5097;43.260;27.812;2023-08-31T06:26:17;9.07;;;8.18;;
10114;SDS011;5097;43.260;27.812;2023-08-31T06:29:01;8.43;;;7.53;;
10114;SDS011;5097;43.260;27.812;2023-08-31T06:31:45;9.65;;;7.65;;
10114;SDS011;5097;43.260;27.812;2023-08-31T06:34:29;9.25;;;7.82;;
10114;SDS011;5097;43.260;27.812;2023-08-31T06:37:15;7.43;;;6.70;;
10114;SDS011;5097;43.260;27.812;2023-08-31T06:39:59;7.60;;;6.90;;
10114;SDS011;5097;43.260;27.812;2023-08-31T06:42:43;7.65;;;6.93;;
10114;SDS011;5097;43.260;27.812;2023-08-31T06:45:27;7.82;;;6.97;;
10114;SDS011;5097;43.260;27.812;2023-08-31T06:48:11;8.45;;;6.97;;
10114;SDS011;5097;43.260;27.812;2023-08-31T06:50:54;7.80;;;7.13;;
10114;SDS011;5097;43.260;27.812;2023-08-31T06:53:41;7.28;;;6.55;;
10114;SDS011;5097;43.260;27.812;2023-08-31T06:56:25;8.02;;;6.68;;
10114;SDS011;5097;43.260;27.812;2023-08-31T06:59:09;8.07;;;6.55;;
10114;SDS011;5097;43.260;27.812;2023-08-31T07:01:53;7.55;;;6.75;;
10114;SDS011;5097;43.260;27.812;2023-08-31T07:04:37;7.85;;;7.05;;
10114;SDS011;5097;43.260;27.812;2023-08-31T07:07:21;6.88;;;6.38;;
10114;SDS011;5097;43.260;27.812;2023-08-31T07:10:07;6.43;;;5.78;;
10114;SDS011;5097;43.260;27.812;2023-08-31T07:12:51;8.30;;;6.53;;
10114;SDS011;5097;43.260;27.812;2023-08-31T07:15:35;6.88;;;5.93;;
10114;SDS011;5097;43.260;27.812;2023-08-31T07:18:19;6.55;;;6.03;;
10114;SDS011;5097;43.260;27.812;2023-08-31T07:21:03;6.45;;;5.85;;
10114;SDS011;5097;43.260;27.812;2023-08-31T07:23:47;6.22;;;5.72;;
10114;SDS011;5097;43.260;27.812;2023-08-31T07:26:33;6.30;;;5.70;;
10114;SDS011;5097;43.260;27.812;2023-08-31T07:29:17;6.88;;;6.22;;
10114;SDS011;5097;43.260;27.812;2023-08-31T07:32:01;5.82;;;5.20;;
10114;SDS011;5097;43.260;27.812;2023-08-31T07:34:45;6.15;;;5.63;;
10114;SDS011;5097;43.260;27.812;2023-08-31T07:37:29;6.45;;;5.90;;
10114;SDS011;5097;43.260;27.812;2023-08-31T07:40:13;7.65;;;6.50;;
10114;SDS011;5097;43.260;27.812;2023-08-31T07:43:00;7.00;;;6.30;;
10114;SDS011;5097;43.260;27.812;2023-08-31T07:45:44;6.25;;;5.65;;
10114;SDS011;5097;43.260;27.812;2023-08-31T07:48:28;6.28;;;5.65;;
10114;SDS011;5097;43.260;27.812;2023-08-31T07:51:12;5.90;;;5.35;;
10114;SDS011;5097;43.260;27.812;2023-08-31T07:53:56;6.32;;;5.30;;
10114;SDS011;5097;43.260;27.812;2023-08-31T07:56:39;5.47;;;4.97;;
10114;SDS011;5097;43.260;27.812;2023-08-31T07:59:25;5.93;;;5.22;;
10114;SDS011;5097;43.260;27.812;2023-08-31T08:02:09;5.55;;;5.05;;
10114;SDS011;5097;43.260;27.812;2023-08-31T08:04:53;5.60;;;4.85;;
10114;SDS011;5097;43.260;27.812;2023-08-31T08:07:37;5.22;;;4.70;;
10114;SDS011;5097;43.260;27.812;2023-08-31T08:10:24;5.70;;;4.25;;
10114;SDS011;5097;43.260;27.812;2023-08-31T08:13:08;5.10;;;4.45;;
10114;SDS011;5097;43.260;27.812;2023-08-31T08:15:54;5.13;;;4.55;;
10114;SDS011;5097;43.260;27.812;2023-08-31T08:18:38;4.60;;;4.20;;
10114;SDS011;5097;43.260;27.812;2023-08-31T08:21:22;5.50;;;4.15;;
10114;SDS011;5097;43.260;27.812;2023-08-31T08:24:06;4.47;;;4.15;;
10114;SDS011;5097;43.260;27.812;2023-08-31T08:26:50;4.25;;;3.88;;
10114;SDS011;5097;43.260;27.812;2023-08-31T08:29:34;4.43;;;4.13;;
10114;SDS011;5097;43.260;27.812;2023-08-31T08:32:19;4.10;;;3.70;;
10114;SDS011;5097;43.260;27.812;2023-08-31T08:35:03;4.22;;;3.92;;
10114;SDS011;5097;43.260;27.812;2023-08-31T08:37:48;5.32;;;4.82;;
10114;SDS011;5097;43.260;27.812;2023-08-31T08:40:32;4.18;;;3.88;;
10114;SDS011;5097;43.260;27.812;2023-08-31T08:43:17;3.95;;;3.65;;
10114;SDS011;5097;43.260;27.812;2023-08-31T08:46:08;3.67;;;3.38;;
10114;SDS011;5097;43.260;27.812;2023-08-31T08:48:54;3.78;;;3.47;;
10114;SDS011;5097;43.260;27.812;2023-08-31T08:51:39;4.35;;;4.05;;
10114;SDS011;5097;43.260;27.812;2023-08-31T08:54:23;4.55;;;4.25;;
10114;SDS011;5097;43.260;27.812;2023-08-31T08:57:08;3.28;;;2.97;;
10114;SDS011;5097;43.260;27.812;2023-08-31T08:59:52;4.65;;;4.25;;
10114;SDS011;5097;43.260;27.812;2023-08-31T09:02:36;5.50;;;3.72;;
10114;SDS011;5097;43.260;27.812;2023-08-31T09:05:21;4.60;;;4.20;;
10114;SDS011;5097;43.260;27.812;2023-08-31T09:08:06;4.57;;;4.15;;
10114;SDS011;5097;43.260;27.812;2023-08-31T09:10:54;3.00;;;2.80;;
10114;SDS011;5097;43.260;27.812;2023-08-31T09:13:40;3.63;;;3.03;;
10114;SDS011;5097;43.260;27.812;2023-08-31T09:16:24;3.33;;;3.05;;
10114;SDS011;5097;43.260;27.812;2023-08-31T09:19:17;4.10;;;3.80;;
10114;SDS011;5097;43.260;27.812;2023-08-31T09:22:03;4.35;;;3.95;;
10114;SDS011;5097;43.260;27.812;2023-08-31T09:24:47;3.90;;;3.60;;
10114;SDS011;5097;43.260;27.812;2023-08-31T09:27:31;4.22;;;3.85;;
10114;SDS011;5097;43.260;27.812;2023-08-31T09:30:21;4.80;;;4.40;;
10114;SDS011;5097;43.260;27.812;2023-08-31T09:33:05;4.13;;;3.83;;
10114;SDS011;5097;43.260;27.812;2023-08-31T09:35:50;3.92;;;3.63;;
10114;SDS011;5097;43.260;27.812;2023-08-31T09:38:42;5.22;;;4.63;;
10114;SDS011;5097;43.260;27.812;2023-08-31T09:41:27;4.32;;;4.03;;
10114;SDS011;5097;43.260;27.812;2023-08-31T09:44:14;4.20;;;3.83;;
10114;SDS011;5097;43.260;27.812;2023-08-31T09:46:59;3.72;;;3.38;;
10114;SDS011;5097;43.260;27.812;2023-08-31T09:49:47;4.22;;;3.85;;
10114;SDS011;5097;43.260;27.812;2023-08-31T09:52:32;3.72;;;3.28;;
10114;SDS011;5097;43.260;27.812;2023-08-31T09:55:19;2.97;;;2.78;;
10114;SDS011;5097;43.260;27.812;2023-08-31T09:58:04;3.15;;;2.88;;
10114;SDS011;5097;43.260;27.812;2023-08-31T10:00:57;4.25;;;3.47;;
10114;SDS011;5097;43.260;27.812;2023-08-31T10:03:42;3.78;;;3.47;;
10114;SDS011;5097;43.260;27.812;2023-08-31T10:06:27;4.22;;;3.83;;
10114;SDS011;5097;43.260;27.812;2023-08-31T10:09:12;3.58;;;3.30;;
10114;SDS011;5097;43.260;27.812;2023-08-31T10:11:58;3.90;;;3.38;;
10114;SDS011;5097;43.260;27.812;2023-08-31T10:14:42;3.60;;;3.30;;
10114;SDS011;5097;43.260;27.812;2023-08-31T10:17:28;4.55;;;3.38;;
10114;SDS011;5097;43.260;27.812;2023-08-31T10:20:15;4.50;;;4.10;;
10114;SDS011;5097;43.260;27.812;2023-08-31T10:23:02;4.10;;;3.80;;
10114;SDS011;5097;43.260;27.812;2023-08-31T10:25:59;4.63;;;3.97;;
10114;SDS011;5097;43.260;27.812;2023-08-31T10:28:47;4.20;;;3.90;;
10114;SDS011;5097;43.260;27.812;2023-08-31T10:31:31;4.13;;;3.78;;
10114;SDS011;5097;43.260;27.812;2023-08-31T10:34:17;3.75;;;3.45;;
10114;SDS011;5097;43.260;27.812;2023-08-31T10:37:21;4.32;;;3.97;;
10114;SDS011;5097;43.260;27.812;2023-08-31T10:40:06;4.45;;;3.60;;
10114;SDS011;5097;43.260;27.812;2023-08-31T10:43:14;4.32;;;3.53;;
10114;SDS011;5097;43.260;27.812;2023-08-31T10:46:00;5.22;;;4.72;;
10114;SDS011;5097;43.260;27.812;2023-08-31T10:48:51;3.47;;;3.05;;
10114;SDS011;5097;43.260;27.812;2023-08-31T10:51:37;3.60;;;3.20;;
10114;SDS011;5097;43.260;27.812;2023-08-31T10:54:22;5.22;;;3.30;;
10114;SDS011;5097;43.260;27.812;2023-08-31T10:57:08;3.38;;;3.17;;
10114;SDS011;5097;43.260;27.812;2023-08-31T10:59:54;3.63;;;3.40;;
10114;SDS011;5097;43.260;27.812;2023-08-31T11:02:41;3.50;;;3.20;;
10114;SDS011;5097;43.260;27.812;2023-08-31T11:05:26;3.30;;;3.00;;
10114;SDS011;5097;43.260;27.812;2023-08-31T11:08:10;3.13;;;2.92;;
10114;SDS011;5097;43.260;27.812;2023-08-31T11:10:54;3.30;;;3.00;;
10114;SDS011;5097;43.260;27.812;2023-08-31T11:13:38;3.20;;;2.85;;
10114;SDS011;5097;43.260;27.812;2023-08-31T11:16:22;3.40;;;3.20;;
10114;SDS011;5097;43.260;27.812;2023-08-31T11:19:08;3.70;;;3.40;;
10114;SDS011;5097;43.260;27.812;2023-08-31T11:21:53;3.65;;;3.33;;
10114;SDS011;5097;43.260;27.812;2023-08-31T11:24:37;3.65;;;3.20;;
10114;SDS011;5097;43.260;27.812;2023-08-31T11:27:22;3.33;;;2.92;;
10114;SDS011;5097;43.260;27.812;2023-08-31T11:30:11;3.33;;;3.13;;
10114;SDS011;5097;43.260;27.812;2023-08-31T11:32:56;4.13;;;3.17;;
10114;SDS011;5097;43.260;27.812;2023-08-31T11:35:42;3.28;;;2.97;;
10114;SDS011;5097;43.260;27.812;2023-08-31T11:38:28;3.05;;;2.85;;
10114;SDS011;5097;43.260;27.812;2023-08-31T11:41:13;3.72;;;3.38;;
10114;SDS011;5097;43.260;27.812;2023-08-31T11:43:57;3.10;;;2.90;;
10114;SDS011;5097;43.260;27.812;2023-08-31T11:46:42;3.45;;;3.00;;
10114;SDS011;5097;43.260;27.812;2023-08-31T11:49:30;3.83;;;3.47;;
10114;SDS011;5097;43.260;27.812;2023-08-31T11:52:16;3.42;;;3.13;;
10114;SDS011;5097;43.260;27.812;2023-08-31T11:55:01;3.88;;;3.50;;
10114;SDS011;5097;43.260;27.812;2023-08-31T11:57:49;3.78;;;3.45;;
10114;SDS011;5097;43.260;27.812;2023-08-31T12:00:34;3.83;;;3.53;;
10114;SDS011;5097;43.260;27.812;2023-08-31T12:03:17;3.90;;;3.60;;
10114;SDS011;5097;43.260;27.812;2023-08-31T12:06:02;4.10;;;3.80;;
10114;SDS011;5097;43.260;27.812;2023-08-31T12:08:49;4.03;;;3.47;;
10114;SDS011;5097;43.260;27.812;2023-08-31T12:11:33;4.57;;;4.18;;
10114;SDS011;5097;43.260;27.812;2023-08-31T12:14:20;4.88;;;3.70;;
10114;SDS011;5097;43.260;27.812;2023-08-31T12:17:06;4.07;;;3.78;;
10114;SDS011;5097;43.260;27.812;2023-08-31T12:20:01;3.47;;;3.17;;
10114;SDS011;5097;43.260;27.812;2023-08-31T12:22:47;3.45;;;3.00;;
10114;SDS011;5097;43.260;27.812;2023-08-31T12:25:33;4.97;;;2.80;;
10114;SDS011;5097;43.260;27.812;2023-08-31T12:28:17;3.38;;;3.08;;
10114;SDS011;5097;43.260;27.812;2023-08-31T12:31:01;2.95;;;2.75;;
10114;SDS011;5097;43.260;27.812;2023-08-31T12:33:46;2.88;;;2.67;;
10114;SDS011;5097;43.260;27.812;2023-08-31T12:36:30;2.97;;;2.78;;
10114;SDS011;5097;43.260;27.812;2023-08-31T12:39:14;3.05;;;2.75;;
10114;SDS011;5097;43.260;27.812;2023-08-31T12:42:00;3.22;;;2.90;;
10114;SDS011;5097;43.260;27.812;2023-08-31T12:45:02;3.72;;;3.22;;
10114;SDS011;5097;43.260;27.812;2023-08-31T12:47:48;3.53;;;3.28;;
10114;SDS011;5097;43.260;27.812;2023-08-31T12:50:32;4.45;;;3.10;;
10114;SDS011;5097;43.260;27.812;2023-08-31T12:53:16;3.53;;;3.22;;
10114;SDS011;5097;43.260;27.812;2023-08-31T12:56:00;3.60;;;3.30;;
10114;SDS011;5097;43.260;27.812;2023-08-31T12:58:46;2.90;;;2.70;;
10114;SDS011;5097;43.260;27.812;2023-08-31T13:01:30;2.78;;;2.58;;
10114;SDS011;5097;43.260;27.812;2023-08-31T13:04:15;2.63;;;2.42;;
10114;SDS011;5097;43.260;27.812;2023-08-31T13:06:59;3.28;;;2.97;;
10114;SDS011;5097;43.260;27.812;2023-08-31T13:09:44;5.32;;;3.45;;
10114;SDS011;5097;43.260;27.812;2023-08-31T13:12:30;3.58;;;3.28;;
10114;SDS011;5097;43.260;27.812;2023-08-31T13:15:15;3.63;;;3.33;;
10114;SDS011;5097;43.260;27.812;2023-08-31T13:18:00;3.38;;;3.00;;
10114;SDS011;5097;43.260;27.812;2023-08-31T13:20:50;3.40;;;3.20;;
10114;SDS011;5097;43.260;27.812;2023-08-31T13:23:34;3.08;;;2.88;;
10114;SDS011;5097;43.260;27.812;2023-08-31T13:26:18;3.47;;;3.17;;
10114;SDS011;5097;43.260;27.812;2023-08-31T13:29:02;3.72;;;3.38;;
10114;SDS011;5097;43.260;27.812;2023-08-31T13:31:48;2.95;;;2.75;;
10114;SDS011;5097;43.260;27.812;2023-08-31T13:34:32;3.45;;;2.67;;
10114;SDS011;5097;43.260;27.812;2023-08-31T13:37:17;3.38;;;3.08;;
10114;SDS011;5097;43.260;27.812;2023-08-31T13:40:00;3.03;;;2.80;;
10114;SDS011;5097;43.260;27.812;2023-08-31T13:42:53;2.92;;;2.63;;
10114;SDS011;5097;43.260;27.812;2023-08-31T13:45:39;2.88;;;2.67;;
10114;SDS011;5097;43.260;27.812;2023-08-31T13:48:24;4.28;;;3.97;;
10114;SDS011;5097;43.260;27.812;2023-08-31T13:51:08;4.43;;;4.00;;
10114;SDS011;5097;43.260;27.812;2023-08-31T13:53:52;6.80;;;5.28;;
10114;SDS011;5097;43.260;27.812;2023-08-31T13:56:36;5.20;;;4.70;;
10114;SDS011;5097;43.260;27.812;2023-08-31T13:59:20;4.68;;;4.22;;
10114;SDS011;5097;43.260;27.812;2023-08-31T14:02:04;6.70;;;4.80;;
10114;SDS011;5097;43.260;27.812;2023-08-31T14:04:50;5.13;;;4.72;;
10114;SDS011;5097;43.260;27.812;2023-08-31T14:07:34;5.10;;;4.65;;
10114;SDS011;5097;43.260;27.812;2023-08-31T14:10:19;4.55;;;4.20;;
10114;SDS011;5097;43.260;27.812;2023-08-31T14:13:03;5.30;;;4.80;;
10114;SDS011;5097;43.260;27.812;2023-08-31T14:15:47;5.43;;;4.88;;
10114;SDS011;5097;43.260;27.812;2023-08-31T14:18:32;5.72;;;4.65;;
10114;SDS011;5097;43.260;27.812;2023-08-31T14:21:17;6.53;;;4.65;;
10114;SDS011;5097;43.260;27.812;2023-08-31T14:24:02;5.78;;;5.00;;
10114;SDS011;5097;43.260;27.812;2023-08-31T14:26:46;7.95;;;5.55;;
10114;SDS011;5097;43.260;27.812;2023-08-31T14:29:30;5.78;;;5.28;;
10114;SDS011;5097;43.260;27.812;2023-08-31T14:32:14;5.70;;;5.10;;
10114;SDS011;5097;43.260;27.812;2023-08-31T14:34:58;7.38;;;5.90;;
10114;SDS011;5097;43.260;27.812;2023-08-31T14:37:45;7.07;;;6.30;;
10114;SDS011;5097;43.260;27.812;2023-08-31T14:40:30;9.15;;;6.13;;
10114;SDS011;5097;43.260;27.812;2023-08-31T14:43:16;8.23;;;5.60;;
10114;SDS011;5097;43.260;27.812;2023-08-31T14:46:00;8.98;;;7.07;;
10114;SDS011;5097;43.260;27.812;2023-08-31T14:48:45;8.45;;;6.63;;
10114;SDS011;5097;43.260;27.812;2023-08-31T14:51:29;6.43;;;5.82;;
10114;SDS011;5097;43.260;27.812;2023-08-31T14:54:14;7.43;;;6.72;;
10114;SDS011;5097;43.260;27.812;2023-08-31T14:56:58;5.57;;;4.90;;
10114;SDS011;5097;43.260;27.812;2023-08-31T14:59:42;4.43;;;3.20;;
10114;SDS011;5097;43.260;27.812;2023-08-31T15:02:27;4.00;;;3.25;;
10114;SDS011;5097;43.260;27.812;2023-08-31T15:05:11;4.93;;;3.55;;
10114;SDS011;5097;43.260;27.812;2023-08-31T15:07:57;6.03;;;4.03;;
10114;SDS011;5097;43.260;27.812;2023-08-31T15:10:42;6.82;;;4.35;;
10114;SDS011;5097;43.260;27.812;2023-08-31T15:13:27;10.20;;;5.75;;
10114;SDS011;5097;43.260;27.812;2023-08-31T15:16:12;7.38;;;4.95;;
10114;SDS011;5097;43.260;27.812;2023-08-31T15:18:56;14.02;;;8.10;;
10114;SDS011;5097;43.260;27.812;2023-08-31T15:21:39;7.85;;;7.05;;
10114;SDS011;5097;43.260;27.812;2023-08-31T15:24:23;9.93;;;7.22;;
10114;SDS011;5097;43.260;27.812;2023-08-31T15:27:09;10.85;;;6.85;;
10114;SDS011;5097;43.260;27.812;2023-08-31T15:29:53;7.38;;;6.63;;
10114;SDS011;5097;43.260;27.812;2023-08-31T15:32:37;9.30;;;5.85;;
10114;SDS011;5097;43.260;27.812;2023-08-31T15:35:21;8.90;;;6.38;;
10114;SDS011;5097;43.260;27.812;2023-08-31T15:38:05;7.18;;;6.25;;
10114;SDS011;5097;43.260;27.812;2023-08-31T15:40:49;10.48;;;8.02;;
10114;SDS011;5097;43.260;27.812;2023-08-31T15:43:35;7.47;;;6.25;;
10114;SDS011;5097;43.260;27.812;2023-08-31T15:46:20;7.80;;;6.93;;
10114;SDS011;5097;43.260;27.812;2023-08-31T15:49:05;11.48;;;9.13;;
10114;SDS011;5097;43.260;27.812;2023-08-31T15:51:49;10.95;;;8.43;;
10114;SDS011;5097;43.260;27.812;2023-08-31T15:54:34;9.70;;;8.70;;
10114;SDS011;5097;43.260;27.812;2023-08-31T15:57:19;11.00;;;8.23;;
10114;SDS011;5097;43.260;27.812;2023-08-31T16:00:05;10.40;;;8.27;;
10114;SDS011;5097;43.260;27.812;2023-08-31T16:02:53;12.93;;;8.77;;
10114;SDS011;5097;43.260;27.812;2023-08-31T16:05:38;11.98;;;9.85;;
10114;SDS011;5097;43.260;27.812;2023-08-31T16:08:22;9.35;;;7.57;;
10114;SDS011;5097;43.260;27.812;2023-08-31T16:11:07;8.20;;;7.40;;
10114;SDS011;5097;43.260;27.812;2023-08-31T16:13:53;8.85;;;5.97;;
10114;SDS011;5097;43.260;27.812;2023-08-31T16:16:39;6.57;;;5.90;;
10114;SDS011;5097;43.260;27.812;2023-08-31T16:19:24;8.07;;;6.90;;
10114;SDS011;5097;43.260;27.812;2023-08-31T16:22:08;7.18;;;6.47;;
10114;SDS011;5097;43.260;27.812;2023-08-31T16:24:52;8.40;;;6.85;;
10114;SDS011;5097;43.260;27.812;2023-08-31T16:27:36;8.00;;;6.63;;
10114;SDS011;5097;43.260;27.812;2023-08-31T16:30:20;8.48;;;7.18;;
10114;SDS011;5097;43.260;27.812;2023-08-31T16:33:05;9.07;;;7.22;;
10114;SDS011;5097;43.260;27.812;2023-08-31T16:35:50;10.85;;;8.23;;